sensor_id;sensor_type;location;lat;lon;timestamp;P1;durP1;ratioP1;P2;durP2;ratioP2
793;SDS011;380;48.738;9.214;2024-03-29T00:00:36;1.25;;;0.50;;
793;SDS011;380;48.738;9.214;2024-03-29T00:03:02;2.08;;;1.00;;
793;SDS011;380;48.738;9.214;2024-03-29T00:05:28;1.42;;;0.77;;
793;SDS011;380;48.738;9.214;2024-03-29T00:07:54;2.95;;;1.10;;
793;SDS011;380;48.738;9.214;2024-03-29T00:10:20;3.00;;;0.80;;
793;SDS011;380;48.738;9.214;2024-03-29T00:12:46;2.97;;;0.80;;
793;SDS011;380;48.738;9.214;2024-03-29T00:15:12;2.38;;;1.27;;
793;SDS011;380;48.738;9.214;2024-03-29T00:17:38;3.20;;;0.98;;
793;SDS011;380;48.738;9.214;2024-03-29T00:20:04;1.52;;;0.70;;
793;SDS011;380;48.738;9.214;2024-03-29T00:22:30;1.50;;;0.90;;
793;SDS011;380;48.738;9.214;2024-03-29T00:24:56;4.63;;;0.82;;
793;SDS011;380;48.738;9.214;2024-03-29T00:27:22;4.00;;;1.10;;
793;SDS011;380;48.738;9.214;2024-03-29T00:29:51;1.50;;;0.75;;
793;SDS011;380;48.738;9.214;2024-03-29T00:32:20;2.35;;;1.02;;
793;SDS011;380;48.738;9.214;2024-03-29T00:34:49;1.60;;;0.80;;
793;SDS011;380;48.738;9.214;2024-03-29T00:37:15;2.80;;;1.15;;
793;SDS011;380;48.738;9.214;2024-03-29T00:39:41;0.80;;;0.50;;
793;SDS011;380;48.738;9.214;2024-03-29T00:42:07;1.80;;;0.80;;
793;SDS011;380;48.738;9.214;2024-03-29T00:44:44;2.13;;;0.93;;
793;SDS011;380;48.738;9.214;2024-03-29T00:47:10;2.42;;;1.08;;
793;SDS011;380;48.738;9.214;2024-03-29T00:49:38;2.08;;;0.80;;
793;SDS011;380;48.738;9.214;2024-03-29T00:52:04;1.27;;;0.75;;
793;SDS011;380;48.738;9.214;2024-03-29T00:54:30;0.73;;;0.38;;
793;SDS011;380;48.738;9.214;2024-03-29T00:56:56;1.40;;;0.70;;
793;SDS011;380;48.738;9.214;2024-03-29T00:59:22;2.28;;;1.00;;
793;SDS011;380;48.738;9.214;2024-03-29T01:01:49;1.55;;;0.77;;
793;SDS011;380;48.738;9.214;2024-03-29T01:04:15;1.33;;;0.70;;
793;SDS011;380;48.738;9.214;2024-03-29T01:06:41;2.72;;;0.75;;
793;SDS011;380;48.738;9.214;2024-03-29T01:09:08;2.20;;;0.73;;
793;SDS011;380;48.738;9.214;2024-03-29T01:11:37;1.58;;;0.57;;
793;SDS011;380;48.738;9.214;2024-03-29T01:14:03;3.03;;;0.68;;
793;SDS011;380;48.738;9.214;2024-03-29T01:16:29;2.53;;;0.80;;
793;SDS011;380;48.738;9.214;2024-03-29T01:18:57;1.40;;;0.60;;
793;SDS011;380;48.738;9.214;2024-03-29T01:21:23;1.48;;;0.50;;
793;SDS011;380;48.738;9.214;2024-03-29T01:23:49;1.00;;;0.45;;
793;SDS011;380;48.738;9.214;2024-03-29T01:26:15;1.58;;;0.70;;
793;SDS011;380;48.738;9.214;2024-03-29T01:28:42;0.75;;;0.45;;
793;SDS011;380;48.738;9.214;2024-03-29T01:31:08;2.55;;;0.80;;
793;SDS011;380;48.738;9.214;2024-03-29T01:33:34;0.80;;;0.43;;
793;SDS011;380;48.738;9.214;2024-03-29T01:36:02;1.83;;;1.00;;
793;SDS011;380;48.738;9.214;2024-03-29T01:38:28;1.05;;;0.45;;
793;SDS011;380;48.738;9.214;2024-03-29T01:40:54;1.20;;;0.55;;
793;SDS011;380;48.738;9.214;2024-03-29T01:43:20;1.13;;;0.43;;
793;SDS011;380;48.738;9.214;2024-03-29T01:45:47;1.70;;;0.82;;
793;SDS011;380;48.738;9.214;2024-03-29T01:48:14;1.80;;;0.80;;
793;SDS011;380;48.738;9.214;2024-03-29T01:50:41;0.80;;;0.40;;
793;SDS011;380;48.738;9.214;2024-03-29T01:53:07;1.13;;;0.60;;
793;SDS011;380;48.738;9.214;2024-03-29T01:55:34;1.08;;;0.63;;
793;SDS011;380;48.738;9.214;2024-03-29T01:58:00;2.90;;;0.90;;
793;SDS011;380;48.738;9.214;2024-03-29T02:00:27;1.13;;;0.40;;
793;SDS011;380;48.738;9.214;2024-03-29T02:02:54;2.08;;;0.50;;
793;SDS011;380;48.738;9.214;2024-03-29T02:05:20;0.73;;;0.40;;
793;SDS011;380;48.738;9.214;2024-03-29T02:07:46;2.38;;;0.80;;
793;SDS011;380;48.738;9.214;2024-03-29T02:10:13;1.00;;;0.57;;
793;SDS011;380;48.738;9.214;2024-03-29T02:12:40;0.98;;;0.40;;
793;SDS011;380;48.738;9.214;2024-03-29T02:15:06;1.80;;;0.73;;
793;SDS011;380;48.738;9.214;2024-03-29T02:17:32;0.80;;;0.45;;
793;SDS011;380;48.738;9.214;2024-03-29T02:19:58;1.50;;;0.60;;
793;SDS011;380;48.738;9.214;2024-03-29T02:22:24;0.57;;;0.30;;
793;SDS011;380;48.738;9.214;2024-03-29T02:24:51;2.33;;;0.77;;
793;SDS011;380;48.738;9.214;2024-03-29T02:27:17;1.75;;;0.75;;
793;SDS011;380;48.738;9.214;2024-03-29T02:29:43;0.93;;;0.47;;
793;SDS011;380;48.738;9.214;2024-03-29T02:32:09;1.17;;;0.52;;
793;SDS011;380;48.738;9.214;2024-03-29T02:34:35;1.17;;;0.50;;
793;SDS011;380;48.738;9.214;2024-03-29T02:37:01;1.75;;;0.52;;
793;SDS011;380;48.738;9.214;2024-03-29T02:39:27;4.00;;;0.60;;
793;SDS011;380;48.738;9.214;2024-03-29T02:41:53;1.13;;;0.55;;
793;SDS011;380;48.738;9.214;2024-03-29T02:44:19;1.85;;;0.43;;
793;SDS011;380;48.738;9.214;2024-03-29T02:46:45;2.50;;;0.52;;
793;SDS011;380;48.738;9.214;2024-03-29T02:49:11;0.68;;;0.40;;
793;SDS011;380;48.738;9.214;2024-03-29T02:51:37;0.90;;;0.40;;
793;SDS011;380;48.738;9.214;2024-03-29T02:54:03;2.58;;;0.70;;
793;SDS011;380;48.738;9.214;2024-03-29T02:56:28;1.17;;;0.43;;
793;SDS011;380;48.738;9.214;2024-03-29T02:58:55;0.95;;;0.60;;
793;SDS011;380;48.738;9.214;2024-03-29T03:01:21;1.40;;;0.60;;
793;SDS011;380;48.738;9.214;2024-03-29T03:03:47;1.60;;;0.63;;
793;SDS011;380;48.738;9.214;2024-03-29T03:06:13;1.10;;;0.50;;
793;SDS011;380;48.738;9.214;2024-03-29T03:08:39;2.42;;;0.70;;
793;SDS011;380;48.738;9.214;2024-03-29T03:11:23;1.10;;;0.55;;
793;SDS011;380;48.738;9.214;2024-03-29T03:13:49;1.27;;;0.60;;
793;SDS011;380;48.738;9.214;2024-03-29T03:16:15;0.75;;;0.35;;
793;SDS011;380;48.738;9.214;2024-03-29T03:18:41;0.70;;;0.32;;
793;SDS011;380;48.738;9.214;2024-03-29T03:21:07;0.93;;;0.45;;
793;SDS011;380;48.738;9.214;2024-03-29T03:23:33;0.65;;;0.40;;
793;SDS011;380;48.738;9.214;2024-03-29T03:26:00;0.52;;;0.20;;
793;SDS011;380;48.738;9.214;2024-03-29T03:28:28;0.80;;;0.40;;
793;SDS011;380;48.738;9.214;2024-03-29T03:30:53;1.13;;;0.47;;
793;SDS011;380;48.738;9.214;2024-03-29T03:33:20;1.38;;;0.32;;
793;SDS011;380;48.738;9.214;2024-03-29T03:35:46;1.63;;;0.40;;
793;SDS011;380;48.738;9.214;2024-03-29T03:38:12;0.75;;;0.45;;
793;SDS011;380;48.738;9.214;2024-03-29T03:40:38;1.45;;;0.52;;
793;SDS011;380;48.738;9.214;2024-03-29T03:43:05;1.17;;;0.50;;
793;SDS011;380;48.738;9.214;2024-03-29T03:45:34;1.50;;;0.60;;
793;SDS011;380;48.738;9.214;2024-03-29T03:48:01;1.10;;;0.30;;
793;SDS011;380;48.738;9.214;2024-03-29T03:50:27;1.00;;;0.50;;
793;SDS011;380;48.738;9.214;2024-03-29T03:52:53;1.48;;;0.43;;
793;SDS011;380;48.738;9.214;2024-03-29T03:55:19;0.55;;;0.28;;
793;SDS011;380;48.738;9.214;2024-03-29T03:57:45;1.02;;;0.20;;
793;SDS011;380;48.738;9.214;2024-03-29T04:00:11;0.43;;;0.15;;
793;SDS011;380;48.738;9.214;2024-03-29T04:02:37;0.95;;;0.45;;
793;SDS011;380;48.738;9.214;2024-03-29T04:05:03;1.05;;;0.43;;
793;SDS011;380;48.738;9.214;2024-03-29T04:07:29;0.55;;;0.25;;
793;SDS011;380;48.738;9.214;2024-03-29T04:09:55;0.55;;;0.22;;
793;SDS011;380;48.738;9.214;2024-03-29T04:12:21;0.45;;;0.20;;
793;SDS011;380;48.738;9.214;2024-03-29T04:14:47;0.82;;;0.30;;
793;SDS011;380;48.738;9.214;2024-03-29T04:17:13;0.80;;;0.30;;
793;SDS011;380;48.738;9.214;2024-03-29T04:19:39;0.57;;;0.32;;
793;SDS011;380;48.738;9.214;2024-03-29T04:22:05;1.25;;;0.47;;
793;SDS011;380;48.738;9.214;2024-03-29T04:24:31;1.38;;;0.40;;
793;SDS011;380;48.738;9.214;2024-03-29T04:26:57;0.68;;;0.38;;
793;SDS011;380;48.738;9.214;2024-03-29T04:29:23;0.47;;;0.20;;
793;SDS011;380;48.738;9.214;2024-03-29T04:31:49;0.65;;;0.30;;
793;SDS011;380;48.738;9.214;2024-03-29T04:34:15;1.10;;;0.40;;
793;SDS011;380;48.738;9.214;2024-03-29T04:36:41;0.47;;;0.20;;
793;SDS011;380;48.738;9.214;2024-03-29T04:39:07;0.63;;;0.28;;
793;SDS011;380;48.738;9.214;2024-03-29T04:41:33;0.60;;;0.35;;
793;SDS011;380;48.738;9.214;2024-03-29T04:44:00;0.63;;;0.38;;
793;SDS011;380;48.738;9.214;2024-03-29T04:46:28;0.77;;;0.30;;
793;SDS011;380;48.738;9.214;2024-03-29T04:48:54;1.20;;;0.40;;
793;SDS011;380;48.738;9.214;2024-03-29T04:51:20;0.68;;;0.43;;
793;SDS011;380;48.738;9.214;2024-03-29T04:53:46;0.47;;;0.20;;
793;SDS011;380;48.738;9.214;2024-03-29T04:56:12;0.45;;;0.20;;
793;SDS011;380;48.738;9.214;2024-03-29T04:58:38;1.27;;;0.50;;
793;SDS011;380;48.738;9.214;2024-03-29T05:01:04;0.57;;;0.30;;
793;SDS011;380;48.738;9.214;2024-03-29T05:03:30;1.00;;;0.45;;
793;SDS011;380;48.738;9.214;2024-03-29T05:05:56;0.73;;;0.40;;
793;SDS011;380;48.738;9.214;2024-03-29T05:08:22;0.73;;;0.20;;
793;SDS011;380;48.738;9.214;2024-03-29T05:10:49;0.65;;;0.20;;
793;SDS011;380;48.738;9.214;2024-03-29T05:13:15;0.52;;;0.20;;
793;SDS011;380;48.738;9.214;2024-03-29T05:15:41;0.85;;;0.30;;
793;SDS011;380;48.738;9.214;2024-03-29T05:18:07;0.68;;;0.22;;
793;SDS011;380;48.738;9.214;2024-03-29T05:20:33;0.63;;;0.30;;
793;SDS011;380;48.738;9.214;2024-03-29T05:22:59;0.65;;;0.30;;
793;SDS011;380;48.738;9.214;2024-03-29T05:25:25;1.15;;;0.40;;
793;SDS011;380;48.738;9.214;2024-03-29T05:27:51;0.95;;;0.20;;
793;SDS011;380;48.738;9.214;2024-03-29T05:30:17;0.93;;;0.40;;
793;SDS011;380;48.738;9.214;2024-03-29T05:32:43;0.80;;;0.35;;
793;SDS011;380;48.738;9.214;2024-03-29T05:35:09;0.38;;;0.20;;
793;SDS011;380;48.738;9.214;2024-03-29T05:37:36;0.57;;;0.20;;
793;SDS011;380;48.738;9.214;2024-03-29T05:40:02;0.77;;;0.30;;
793;SDS011;380;48.738;9.214;2024-03-29T05:42:32;0.32;;;0.20;;
793;SDS011;380;48.738;9.214;2024-03-29T05:44:59;0.68;;;0.40;;
793;SDS011;380;48.738;9.214;2024-03-29T05:47:25;0.85;;;0.30;;
793;SDS011;380;48.738;9.214;2024-03-29T05:49:51;0.38;;;0.17;;
793;SDS011;380;48.738;9.214;2024-03-29T05:52:17;0.82;;;0.40;;
793;SDS011;380;48.738;9.214;2024-03-29T05:54:43;0.80;;;0.32;;
793;SDS011;380;48.738;9.214;2024-03-29T05:57:10;0.57;;;0.20;;
793;SDS011;380;48.738;9.214;2024-03-29T05:59:36;0.75;;;0.47;;
793;SDS011;380;48.738;9.214;2024-03-29T06:02:03;4.07;;;0.47;;
793;SDS011;380;48.738;9.214;2024-03-29T06:04:29;0.28;;;0.10;;
793;SDS011;380;48.738;9.214;2024-03-29T06:07:01;0.17;;;0.10;;
793;SDS011;380;48.738;9.214;2024-03-29T06:09:27;0.82;;;0.40;;
793;SDS011;380;48.738;9.214;2024-03-29T06:11:54;0.22;;;0.17;;
793;SDS011;380;48.738;9.214;2024-03-29T06:14:20;1.40;;;0.70;;
793;SDS011;380;48.738;9.214;2024-03-29T06:17:04;1.60;;;0.32;;
793;SDS011;380;48.738;9.214;2024-03-29T06:19:49;0.40;;;0.17;;
793;SDS011;380;48.738;9.214;2024-03-29T06:22:20;2.63;;;0.60;;
793;SDS011;380;48.738;9.214;2024-03-29T06:24:46;1.10;;;0.40;;
793;SDS011;380;48.738;9.214;2024-03-29T06:27:13;0.98;;;0.50;;
793;SDS011;380;48.738;9.214;2024-03-29T06:29:43;0.80;;;0.38;;
793;SDS011;380;48.738;9.214;2024-03-29T06:32:09;1.75;;;0.43;;
793;SDS011;380;48.738;9.214;2024-03-29T06:34:35;0.68;;;0.30;;
793;SDS011;380;48.738;9.214;2024-03-29T06:37:01;0.95;;;0.43;;
793;SDS011;380;48.738;9.214;2024-03-29T06:39:27;0.63;;;0.30;;
793;SDS011;380;48.738;9.214;2024-03-29T06:41:53;0.52;;;0.25;;
793;SDS011;380;48.738;9.214;2024-03-29T06:44:19;0.52;;;0.40;;
793;SDS011;380;48.738;9.214;2024-03-29T06:46:46;1.17;;;0.20;;
793;SDS011;380;48.738;9.214;2024-03-29T06:49:12;3.40;;;0.50;;
793;SDS011;380;48.738;9.214;2024-03-29T06:51:41;0.73;;;0.32;;
793;SDS011;380;48.738;9.214;2024-03-29T06:54:07;0.95;;;0.40;;
793;SDS011;380;48.738;9.214;2024-03-29T06:56:33;0.88;;;0.20;;
793;SDS011;380;48.738;9.214;2024-03-29T06:58:58;1.15;;;0.22;;
793;SDS011;380;48.738;9.214;2024-03-29T07:01:24;0.52;;;0.20;;
793;SDS011;380;48.738;9.214;2024-03-29T07:03:52;0.35;;;0.20;;
793;SDS011;380;48.738;9.214;2024-03-29T07:06:18;1.00;;;0.25;;
793;SDS011;380;48.738;9.214;2024-03-29T07:08:43;1.55;;;0.50;;
793;SDS011;380;48.738;9.214;2024-03-29T07:11:10;0.45;;;0.30;;
793;SDS011;380;48.738;9.214;2024-03-29T07:13:36;0.75;;;0.30;;
793;SDS011;380;48.738;9.214;2024-03-29T07:16:02;0.93;;;0.40;;
793;SDS011;380;48.738;9.214;2024-03-29T07:18:28;0.73;;;0.40;;
793;SDS011;380;48.738;9.214;2024-03-29T07:20:54;0.70;;;0.32;;
793;SDS011;380;48.738;9.214;2024-03-29T07:23:20;1.02;;;0.32;;
793;SDS011;380;48.738;9.214;2024-03-29T07:25:59;0.77;;;0.40;;
793;SDS011;380;48.738;9.214;2024-03-29T07:28:26;0.68;;;0.30;;
793;SDS011;380;48.738;9.214;2024-03-29T07:30:52;1.30;;;0.45;;
793;SDS011;380;48.738;9.214;2024-03-29T07:33:18;0.90;;;0.50;;
793;SDS011;380;48.738;9.214;2024-03-29T07:35:46;1.42;;;0.50;;
793;SDS011;380;48.738;9.214;2024-03-29T07:38:13;1.50;;;0.30;;
793;SDS011;380;48.738;9.214;2024-03-29T07:40:42;2.17;;;0.65;;
793;SDS011;380;48.738;9.214;2024-03-29T07:43:07;0.60;;;0.30;;
793;SDS011;380;48.738;9.214;2024-03-29T07:45:33;1.08;;;0.60;;
793;SDS011;380;48.738;9.214;2024-03-29T07:47:59;1.23;;;0.50;;
793;SDS011;380;48.738;9.214;2024-03-29T07:50:25;1.27;;;0.50;;
793;SDS011;380;48.738;9.214;2024-03-29T07:52:51;0.93;;;0.45;;
793;SDS011;380;48.738;9.214;2024-03-29T07:55:17;2.85;;;0.45;;
793;SDS011;380;48.738;9.214;2024-03-29T07:57:43;0.90;;;0.52;;
793;SDS011;380;48.738;9.214;2024-03-29T08:00:11;1.33;;;0.45;;
793;SDS011;380;48.738;9.214;2024-03-29T08:02:41;1.73;;;0.60;;
793;SDS011;380;48.738;9.214;2024-03-29T08:05:07;1.23;;;0.47;;
793;SDS011;380;48.738;9.214;2024-03-29T08:07:33;1.80;;;0.60;;
793;SDS011;380;48.738;9.214;2024-03-29T08:09:59;1.30;;;0.63;;
793;SDS011;380;48.738;9.214;2024-03-29T08:12:25;0.85;;;0.40;;
793;SDS011;380;48.738;9.214;2024-03-29T08:14:51;1.17;;;0.50;;
793;SDS011;380;48.738;9.214;2024-03-29T08:17:17;1.30;;;0.38;;
793;SDS011;380;48.738;9.214;2024-03-29T08:19:43;1.67;;;0.68;;
793;SDS011;380;48.738;9.214;2024-03-29T08:22:09;1.77;;;0.70;;
793;SDS011;380;48.738;9.214;2024-03-29T08:24:36;1.42;;;0.77;;
793;SDS011;380;48.738;9.214;2024-03-29T08:27:02;1.92;;;0.93;;
793;SDS011;380;48.738;9.214;2024-03-29T08:29:28;1.70;;;0.88;;
793;SDS011;380;48.738;9.214;2024-03-29T08:31:54;1.15;;;0.50;;
793;SDS011;380;48.738;9.214;2024-03-29T08:34:20;1.48;;;0.90;;
793;SDS011;380;48.738;9.214;2024-03-29T08:36:46;3.22;;;0.80;;
793;SDS011;380;48.738;9.214;2024-03-29T08:39:12;1.88;;;0.90;;
793;SDS011;380;48.738;9.214;2024-03-29T08:41:38;1.45;;;0.70;;
793;SDS011;380;48.738;9.214;2024-03-29T08:44:05;2.28;;;0.75;;
793;SDS011;380;48.738;9.214;2024-03-29T08:46:31;1.40;;;0.63;;
793;SDS011;380;48.738;9.214;2024-03-29T08:48:57;0.77;;;0.38;;
793;SDS011;380;48.738;9.214;2024-03-29T08:51:23;1.27;;;0.60;;
793;SDS011;380;48.738;9.214;2024-03-29T08:53:49;2.25;;;0.70;;
793;SDS011;380;48.738;9.214;2024-03-29T08:56:15;0.98;;;0.50;;
793;SDS011;380;48.738;9.214;2024-03-29T08:58:41;1.23;;;0.60;;
793;SDS011;380;48.738;9.214;2024-03-29T09:01:07;1.38;;;0.63;;
793;SDS011;380;48.738;9.214;2024-03-29T09:03:33;2.80;;;0.90;;
793;SDS011;380;48.738;9.214;2024-03-29T09:05:59;1.02;;;0.45;;
793;SDS011;380;48.738;9.214;2024-03-29T09:08:25;0.88;;;0.35;;
793;SDS011;380;48.738;9.214;2024-03-29T09:10:51;1.08;;;0.55;;
793;SDS011;380;48.738;9.214;2024-03-29T09:13:17;1.45;;;0.70;;
793;SDS011;380;48.738;9.214;2024-03-29T09:15:43;1.55;;;0.43;;
793;SDS011;380;48.738;9.214;2024-03-29T09:18:09;0.90;;;0.52;;
793;SDS011;380;48.738;9.214;2024-03-29T09:20:42;1.50;;;0.60;;
793;SDS011;380;48.738;9.214;2024-03-29T09:23:07;2.28;;;0.73;;
793;SDS011;380;48.738;9.214;2024-03-29T09:25:33;0.95;;;0.40;;
793;SDS011;380;48.738;9.214;2024-03-29T09:27:59;1.08;;;0.57;;
793;SDS011;380;48.738;9.214;2024-03-29T09:30:25;2.25;;;0.50;;
793;SDS011;380;48.738;9.214;2024-03-29T09:32:51;0.82;;;0.43;;
793;SDS011;380;48.738;9.214;2024-03-29T09:35:17;0.95;;;0.60;;
793;SDS011;380;48.738;9.214;2024-03-29T09:37:44;1.55;;;0.90;;
793;SDS011;380;48.738;9.214;2024-03-29T09:40:11;2.13;;;0.88;;
793;SDS011;380;48.738;9.214;2024-03-29T09:42:38;1.30;;;0.70;;
793;SDS011;380;48.738;9.214;2024-03-29T09:45:05;1.23;;;0.60;;
793;SDS011;380;48.738;9.214;2024-03-29T09:47:31;1.33;;;0.70;;
793;SDS011;380;48.738;9.214;2024-03-29T09:50:02;1.35;;;0.63;;
793;SDS011;380;48.738;9.214;2024-03-29T09:52:31;1.15;;;0.73;;
793;SDS011;380;48.738;9.214;2024-03-29T09:54:58;3.05;;;0.80;;
793;SDS011;380;48.738;9.214;2024-03-29T09:57:25;4.88;;;0.93;;
793;SDS011;380;48.738;9.214;2024-03-29T09:59:56;4.18;;;0.98;;
793;SDS011;380;48.738;9.214;2024-03-29T10:02:22;2.05;;;0.70;;
793;SDS011;380;48.738;9.214;2024-03-29T10:04:51;2.28;;;1.10;;
793;SDS011;380;48.738;9.214;2024-03-29T10:07:18;1.73;;;0.90;;
793;SDS011;380;48.738;9.214;2024-03-29T10:09:45;1.17;;;0.77;;
793;SDS011;380;48.738;9.214;2024-03-29T10:12:11;2.47;;;1.20;;
793;SDS011;380;48.738;9.214;2024-03-29T10:14:44;1.92;;;1.20;;
793;SDS011;380;48.738;9.214;2024-03-29T10:17:14;1.80;;;1.10;;
793;SDS011;380;48.738;9.214;2024-03-29T10:19:40;2.35;;;0.85;;
793;SDS011;380;48.738;9.214;2024-03-29T10:22:07;3.53;;;1.20;;
793;SDS011;380;48.738;9.214;2024-03-29T10:24:33;1.80;;;1.27;;
793;SDS011;380;48.738;9.214;2024-03-29T10:26:59;1.83;;;1.00;;
793;SDS011;380;48.738;9.214;2024-03-29T10:29:27;2.10;;;1.20;;
793;SDS011;380;48.738;9.214;2024-03-29T10:31:55;2.88;;;1.65;;
793;SDS011;380;48.738;9.214;2024-03-29T10:34:21;2.80;;;1.35;;
793;SDS011;380;48.738;9.214;2024-03-29T10:36:48;1.95;;;1.23;;
793;SDS011;380;48.738;9.214;2024-03-29T10:39:15;1.73;;;0.90;;
793;SDS011;380;48.738;9.214;2024-03-29T10:41:42;1.98;;;0.85;;
793;SDS011;380;48.738;9.214;2024-03-29T10:44:09;3.90;;;1.73;;
793;SDS011;380;48.738;9.214;2024-03-29T10:46:37;2.33;;;0.88;;
793;SDS011;380;48.738;9.214;2024-03-29T10:49:04;1.77;;;1.10;;
793;SDS011;380;48.738;9.214;2024-03-29T10:51:32;3.83;;;1.38;;
793;SDS011;380;48.738;9.214;2024-03-29T10:53:59;2.90;;;1.08;;
793;SDS011;380;48.738;9.214;2024-03-29T10:56:26;1.77;;;0.90;;
793;SDS011;380;48.738;9.214;2024-03-29T10:58:52;3.28;;;1.27;;
793;SDS011;380;48.738;9.214;2024-03-29T11:01:20;2.47;;;1.23;;
793;SDS011;380;48.738;9.214;2024-03-29T11:03:50;2.50;;;1.13;;
793;SDS011;380;48.738;9.214;2024-03-29T11:06:16;2.03;;;0.85;;
793;SDS011;380;48.738;9.214;2024-03-29T11:08:44;1.52;;;0.80;;
793;SDS011;380;48.738;9.214;2024-03-29T11:11:12;1.85;;;1.15;;
793;SDS011;380;48.738;9.214;2024-03-29T11:13:45;2.28;;;1.00;;
793;SDS011;380;48.738;9.214;2024-03-29T11:16:13;2.50;;;1.00;;
793;SDS011;380;48.738;9.214;2024-03-29T11:21:09;3.05;;;1.00;;
793;SDS011;380;48.738;9.214;2024-03-29T11:23:37;1.42;;;0.90;;
793;SDS011;380;48.738;9.214;2024-03-29T11:26:04;2.67;;;0.60;;
793;SDS011;380;48.738;9.214;2024-03-29T11:28:34;1.75;;;0.63;;
793;SDS011;380;48.738;9.214;2024-03-29T11:31:01;1.58;;;1.00;;
793;SDS011;380;48.738;9.214;2024-03-29T11:35:59;2.95;;;1.10;;
793;SDS011;380;48.738;9.214;2024-03-29T11:38:33;1.75;;;0.95;;
793;SDS011;380;48.738;9.214;2024-03-29T11:41:12;2.13;;;0.73;;
793;SDS011;380;48.738;9.214;2024-03-29T11:43:38;1.33;;;0.77;;
793;SDS011;380;48.738;9.214;2024-03-29T11:46:05;1.63;;;0.93;;
793;SDS011;380;48.738;9.214;2024-03-29T11:48:32;2.63;;;0.73;;
793;SDS011;380;48.738;9.214;2024-03-29T11:50:58;1.70;;;0.82;;
793;SDS011;380;48.738;9.214;2024-03-29T11:53:24;1.73;;;1.00;;
793;SDS011;380;48.738;9.214;2024-03-29T11:55:52;2.45;;;1.02;;
793;SDS011;380;48.738;9.214;2024-03-29T11:58:25;2.05;;;0.95;;
793;SDS011;380;48.738;9.214;2024-03-29T12:00:51;1.77;;;0.80;;
793;SDS011;380;48.738;9.214;2024-03-29T12:03:17;1.73;;;0.82;;
793;SDS011;380;48.738;9.214;2024-03-29T12:05:45;2.00;;;0.88;;
793;SDS011;380;48.738;9.214;2024-03-29T12:08:11;2.00;;;0.95;;
793;SDS011;380;48.738;9.214;2024-03-29T12:10:37;1.25;;;0.57;;
793;SDS011;380;48.738;9.214;2024-03-29T12:13:06;0.90;;;0.40;;
793;SDS011;380;48.738;9.214;2024-03-29T12:15:33;1.45;;;0.70;;
793;SDS011;380;48.738;9.214;2024-03-29T12:18:00;1.00;;;0.70;;
793;SDS011;380;48.738;9.214;2024-03-29T12:20:30;0.65;;;0.40;;
793;SDS011;380;48.738;9.214;2024-03-29T12:22:58;1.30;;;0.65;;
793;SDS011;380;48.738;9.214;2024-03-29T12:25:25;4.45;;;0.80;;
793;SDS011;380;48.738;9.214;2024-03-29T12:27:52;1.50;;;0.47;;
793;SDS011;380;48.738;9.214;2024-03-29T12:30:18;1.58;;;0.68;;
793;SDS011;380;48.738;9.214;2024-03-29T12:32:44;1.23;;;0.57;;
793;SDS011;380;48.738;9.214;2024-03-29T12:35:14;1.73;;;0.70;;
793;SDS011;380;48.738;9.214;2024-03-29T12:37:49;1.23;;;0.52;;
793;SDS011;380;48.738;9.214;2024-03-29T12:40:16;0.88;;;0.50;;
793;SDS011;380;48.738;9.214;2024-03-29T12:42:48;2.25;;;0.80;;
793;SDS011;380;48.738;9.214;2024-03-29T12:45:15;1.80;;;0.75;;
793;SDS011;380;48.738;9.214;2024-03-29T12:47:41;0.88;;;0.30;;
793;SDS011;380;48.738;9.214;2024-03-29T12:50:07;1.15;;;0.65;;
793;SDS011;380;48.738;9.214;2024-03-29T12:52:37;1.83;;;0.70;;
793;SDS011;380;48.738;9.214;2024-03-29T12:55:03;1.57;;;0.67;;
793;SDS011;380;48.738;9.214;2024-03-29T12:57:30;1.63;;;0.77;;
793;SDS011;380;48.738;9.214;2024-03-29T12:59:56;1.42;;;0.57;;
793;SDS011;380;48.738;9.214;2024-03-29T13:02:22;1.77;;;0.65;;
793;SDS011;380;48.738;9.214;2024-03-29T13:04:48;1.30;;;0.55;;
793;SDS011;380;48.738;9.214;2024-03-29T13:07:14;3.05;;;0.60;;
793;SDS011;380;48.738;9.214;2024-03-29T13:09:40;2.33;;;0.77;;
793;SDS011;380;48.738;9.214;2024-03-29T13:12:06;1.23;;;0.73;;
793;SDS011;380;48.738;9.214;2024-03-29T13:14:32;3.47;;;0.70;;
793;SDS011;380;48.738;9.214;2024-03-29T13:16:59;1.05;;;0.50;;
793;SDS011;380;48.738;9.214;2024-03-29T13:19:25;1.85;;;0.75;;
793;SDS011;380;48.738;9.214;2024-03-29T13:21:51;1.35;;;0.60;;
793;SDS011;380;48.738;9.214;2024-03-29T13:24:17;1.77;;;0.90;;
793;SDS011;380;48.738;9.214;2024-03-29T13:26:43;1.05;;;0.52;;
793;SDS011;380;48.738;9.214;2024-03-29T13:29:09;2.40;;;0.93;;
793;SDS011;380;48.738;9.214;2024-03-29T13:31:38;1.73;;;0.77;;
793;SDS011;380;48.738;9.214;2024-03-29T13:34:04;1.90;;;0.82;;
793;SDS011;380;48.738;9.214;2024-03-29T13:36:40;0.98;;;0.60;;
793;SDS011;380;48.738;9.214;2024-03-29T13:39:07;1.25;;;0.70;;
793;SDS011;380;48.738;9.214;2024-03-29T13:41:34;1.27;;;0.65;;
793;SDS011;380;48.738;9.214;2024-03-29T13:44:00;1.00;;;0.55;;
793;SDS011;380;48.738;9.214;2024-03-29T13:46:31;1.23;;;0.47;;
793;SDS011;380;48.738;9.214;2024-03-29T13:48:57;0.82;;;0.40;;
793;SDS011;380;48.738;9.214;2024-03-29T13:51:23;2.38;;;0.90;;
793;SDS011;380;48.738;9.214;2024-03-29T13:53:49;1.80;;;0.45;;
793;SDS011;380;48.738;9.214;2024-03-29T13:56:15;2.53;;;0.55;;
793;SDS011;380;48.738;9.214;2024-03-29T13:58:41;0.77;;;0.50;;
793;SDS011;380;48.738;9.214;2024-03-29T14:01:07;1.48;;;0.60;;
793;SDS011;380;48.738;9.214;2024-03-29T14:03:33;0.88;;;0.38;;
793;SDS011;380;48.738;9.214;2024-03-29T14:05:59;2.33;;;0.77;;
793;SDS011;380;48.738;9.214;2024-03-29T14:08:25;1.40;;;0.65;;
793;SDS011;380;48.738;9.214;2024-03-29T14:10:51;1.08;;;0.50;;
793;SDS011;380;48.738;9.214;2024-03-29T14:13:18;1.20;;;0.40;;
793;SDS011;380;48.738;9.214;2024-03-29T14:15:44;0.82;;;0.47;;
793;SDS011;380;48.738;9.214;2024-03-29T14:18:10;3.38;;;0.40;;
793;SDS011;380;48.738;9.214;2024-03-29T14:20:36;0.90;;;0.50;;
793;SDS011;380;48.738;9.214;2024-03-29T14:23:02;0.73;;;0.40;;
793;SDS011;380;48.738;9.214;2024-03-29T14:25:29;1.50;;;0.80;;
793;SDS011;380;48.738;9.214;2024-03-29T14:27:55;2.28;;;0.55;;
793;SDS011;380;48.738;9.214;2024-03-29T14:30:22;1.60;;;0.90;;
793;SDS011;380;48.738;9.214;2024-03-29T14:32:50;1.90;;;0.63;;
793;SDS011;380;48.738;9.214;2024-03-29T14:35:16;1.42;;;0.68;;
793;SDS011;380;48.738;9.214;2024-03-29T14:37:43;1.45;;;0.60;;
793;SDS011;380;48.738;9.214;2024-03-29T14:40:09;1.35;;;0.70;;
793;SDS011;380;48.738;9.214;2024-03-29T14:42:37;0.77;;;0.30;;
793;SDS011;380;48.738;9.214;2024-03-29T14:45:03;1.27;;;0.80;;
793;SDS011;380;48.738;9.214;2024-03-29T14:47:29;2.58;;;0.95;;
793;SDS011;380;48.738;9.214;2024-03-29T14:49:56;3.72;;;0.47;;
793;SDS011;380;48.738;9.214;2024-03-29T14:52:22;1.42;;;0.60;;
793;SDS011;380;48.738;9.214;2024-03-29T14:54:48;2.10;;;0.60;;
793;SDS011;380;48.738;9.214;2024-03-29T14:57:13;0.88;;;0.52;;
793;SDS011;380;48.738;9.214;2024-03-29T14:59:39;1.90;;;0.60;;
793;SDS011;380;48.738;9.214;2024-03-29T15:02:05;1.70;;;0.70;;
793;SDS011;380;48.738;9.214;2024-03-29T15:04:32;1.45;;;0.60;;
793;SDS011;380;48.738;9.214;2024-03-29T15:06:58;1.10;;;0.60;;
793;SDS011;380;48.738;9.214;2024-03-29T15:09:25;2.53;;;0.85;;
793;SDS011;380;48.738;9.214;2024-03-29T15:11:51;1.17;;;0.50;;
793;SDS011;380;48.738;9.214;2024-03-29T15:14:18;1.80;;;0.70;;
793;SDS011;380;48.738;9.214;2024-03-29T15:16:44;2.35;;;0.65;;
793;SDS011;380;48.738;9.214;2024-03-29T15:19:11;1.60;;;0.50;;
793;SDS011;380;48.738;9.214;2024-03-29T15:21:37;1.85;;;0.95;;
793;SDS011;380;48.738;9.214;2024-03-29T15:24:05;1.30;;;0.50;;
793;SDS011;380;48.738;9.214;2024-03-29T15:26:31;1.88;;;0.77;;
793;SDS011;380;48.738;9.214;2024-03-29T15:28:58;2.72;;;0.73;;
793;SDS011;380;48.738;9.214;2024-03-29T15:31:33;1.85;;;0.70;;
793;SDS011;380;48.738;9.214;2024-03-29T15:34:00;1.95;;;1.08;;
793;SDS011;380;48.738;9.214;2024-03-29T15:36:26;1.30;;;0.60;;
793;SDS011;380;48.738;9.214;2024-03-29T15:38:51;2.92;;;1.08;;
793;SDS011;380;48.738;9.214;2024-03-29T15:41:25;1.45;;;0.60;;
793;SDS011;380;48.738;9.214;2024-03-29T15:43:51;1.92;;;0.77;;
793;SDS011;380;48.738;9.214;2024-03-29T15:46:19;1.02;;;0.47;;